< < Back
Terminal Aerodrome Forecast


Current Version              Previous Versions:   1  2  3  4  5  6  7  8  9  

Terminal Aerodrome Forecast

526
FTUS42 KCHS 241100
TAFSAV
TAF
KSAV 241120Z 2412/2512 03004KT P6SM SKC
     FM241500 09010KT P6SM FEW060
     FM241900 12012G18KT P6SM FEW060
     FM250200 16008KT P6SM SCT010 BKN040=

Latest METAR

729
SAUS80 KWBC 241200 RRA
MTRSAV
METAR KSAV 241153Z 35004KT 7SM CLR 16/13 A3001 RMK AO2 SLP162 T01560133
10161 20122 53026


USA.gov is the U.S. government's official web portal to all federal, state and local government web resources and services.